Time;durP1;ratioP1;P1;durP2;ratioP2;P2;SDS_P1;SDS_P2;PMS_P1;PMS_P2;Temp;Humidity;BMP_temperature;BMP_pressure;BME280_temperature;BME280_humidity;BME280_pressure;Samples;Min_cycle;Max_cycle;Signal;HPM_P1;HPM_P2
2022/03/27 00:01:49;;;;;;;31.52;17.58;;;;;;;10.72;38.71;101251.97;5111411;28;20024;-73
2022/03/27 00:04:15;;;;;;;29.42;16.80;;;;;;;10.70;38.80;101253.03;5111514;28;20031;-72
2022/03/27 00:06:41;;;;;;;34.50;18.58;;;;;;;10.62;38.64;101240.22;5110075;28;20057;-72
2022/03/27 00:09:06;;;;;;;30.50;16.23;;;;;;;10.59;39.04;101239.56;5110258;28;20040;-73
2022/03/27 00:11:33;;;;;;;31.77;17.25;;;;;;;10.58;39.19;101241.38;5111274;28;20031;-73
2022/03/27 00:14:00;;;;;;;32.22;16.48;;;;;;;10.66;39.16;101247.06;5111266;28;20714;-72
2022/03/27 00:16:26;;;;;;;35.20;18.27;;;;;;;10.71;38.86;101250.25;5110165;28;20027;-72
2022/03/27 00:18:51;;;;;;;34.75;17.35;;;;;;;10.65;39.23;101245.34;5111216;28;20034;-71
2022/03/27 00:21:20;;;;;;;30.45;17.27;;;;;;;10.65;39.41;101247.16;5109931;28;20051;-72
2022/03/27 00:23:47;;;;;;;33.83;17.10;;;;;;;10.52;39.67;101246.34;5111141;28;20482;-73
2022/03/27 00:26:14;;;;;;;31.50;17.48;;;;;;;10.48;39.49;101248.38;5107682;28;20047;-72
2022/03/27 00:28:39;;;;;;;34.28;17.88;;;;;;;10.43;39.88;101244.31;5110698;28;20047;-73
2022/03/27 00:31:07;;;;;;;33.33;17.58;;;;;;;10.38;40.18;101241.97;5109947;28;20032;-73
2022/03/27 00:33:34;;;;;;;33.83;17.75;;;;;;;10.30;40.24;101246.19;5109405;28;20031;-72
2022/03/27 00:36:00;;;;;;;32.42;16.83;;;;;;;10.28;40.37;101253.47;5110917;28;20072;-73
2022/03/27 00:38:27;;;;;;;33.95;18.52;;;;;;;10.17;40.72;101235.50;5111039;28;20031;-72
2022/03/27 00:40:53;;;;;;;37.25;17.17;;;;;;;10.23;40.86;101244.91;5110956;28;20020;-72
2022/03/27 00:43:20;;;;;;;32.47;18.40;;;;;;;10.19;40.86;101246.09;5110828;28;20011;-73
2022/03/27 00:45:46;;;;;;;40.35;18.52;;;;;;;10.08;40.97;101237.94;5110940;28;20027;-73
2022/03/27 00:48:13;;;;;;;36.15;18.00;;;;;;;10.14;41.04;101250.91;5109378;28;20031;-71
2022/03/27 00:50:42;;;;;;;31.25;17.88;;;;;;;10.04;40.96;101236.44;5110539;28;20032;-74
2022/03/27 00:53:08;;;;;;;29.35;17.70;;;;;;;10.06;41.20;101251.47;5108142;28;20131;-73
2022/03/27 00:55:34;;;;;;;34.20;17.98;;;;;;;10.04;41.10;101258.75;5110573;28;20106;-73
2022/03/27 00:58:01;;;;;;;31.10;18.10;;;;;;;10.03;41.46;101261.53;5109094;28;20027;-72
2022/03/27 01:00:38;;;;;;;32.13;17.88;;;;;;;10.03;41.61;101256.16;5108386;28;20055;-73
2022/03/27 01:03:14;;;;;;;39.20;19.40;;;;;;;10.00;41.85;101251.03;5105281;28;20040;-73
2022/03/27 01:05:41;;;;;;;34.10;19.40;;;;;;;9.96;41.83;101250.38;5106713;28;20063;-72
2022/03/27 01:08:09;;;;;;;27.45;16.67;;;;;;;9.88;42.05;101235.78;5110970;28;20031;-76
2022/03/27 01:10:35;;;;;;;39.70;18.90;;;;;;;9.90;42.05;101250.78;5108319;28;20055;-77
2022/03/27 01:13:08;;;;;;;35.53;18.02;;;;;;;9.88;42.46;101244.72;5109138;28;20059;-78
2022/03/27 01:15:42;;;;;;;34.45;18.38;;;;;;;9.85;42.18;101249.41;5110788;28;20031;-77
2022/03/27 01:18:07;;;;;;;37.78;18.58;;;;;;;9.74;42.42;101236.75;5108257;28;20032;-77
2022/03/27 01:20:35;;;;;;;33.03;17.95;;;;;;;9.77;43.03;101244.59;5110733;28;20035;-77
2022/03/27 01:23:01;;;;;;;35.25;18.30;;;;;;;9.72;43.20;101251.22;5110644;28;20030;-76
2022/03/27 01:25:27;;;;;;;32.10;16.70;;;;;;;9.67;42.68;101243.50;5110641;28;20099;-78
2022/03/27 01:27:53;;;;;;;32.72;17.15;;;;;;;9.69;43.26;101248.75;5110435;28;20020;-76
2022/03/27 01:30:19;;;;;;;33.85;18.42;;;;;;;9.66;43.32;101232.91;5110366;28;20456;-76
2022/03/27 01:32:45;;;;;;;35.08;17.73;;;;;;;9.70;43.43;101245.13;5110505;28;20031;-77
2022/03/27 01:35:12;;;;;;;32.45;19.00;;;;;;;9.73;43.54;101245.75;5109068;28;20016;-77
2022/03/27 01:37:37;;;;;;;36.63;17.98;;;;;;;9.70;43.57;101240.63;5110586;28;20054;-77
2022/03/27 01:40:04;;;;;;;35.25;18.13;;;;;;;9.72;43.68;101252.09;5111059;28;20023;-77
2022/03/27 01:42:29;;;;;;;37.78;18.40;;;;;;;9.68;44.24;101245.25;5110333;28;20039;-77
2022/03/27 01:44:55;;;;;;;36.42;18.48;;;;;;;9.63;44.21;101243.81;5109172;28;20027;-76
2022/03/27 01:47:20;;;;;;;31.70;17.23;;;;;;;9.67;nan;101258.75;5110463;28;20381;-77
2022/03/27 01:49:46;;;;;;;39.03;17.63;;;;;;;9.67;43.99;101258.75;5110395;28;20554;-75
2022/03/27 01:52:13;;;;;;;36.83;19.05;;;;;;;9.63;44.49;101266.13;5110333;28;20116;-77
2022/03/27 01:54:39;;;;;;;33.22;18.65;;;;;;;9.71;44.31;101252.19;5110103;28;20070;-77
2022/03/27 01:57:04;;;;;;;35.95;17.55;;;;;;;9.60;44.18;101254.75;5110405;28;20028;-77
2022/03/27 01:59:30;;;;;;;31.52;16.70;;;;;;;9.59;44.62;101264.63;5109090;28;20023;-77
2022/03/27 02:01:55;;;;;;;32.25;17.25;;;;;;;9.60;44.24;101271.69;5109040;28;20020;-77
2022/03/27 02:04:21;;;;;;;37.90;17.98;;;;;;;9.58;44.52;101260.25;5110349;28;20019;-77
2022/03/27 02:06:46;;;;;;;42.72;18.45;;;;;;;9.60;44.80;101260.97;5111381;28;20047;-77
2022/03/27 02:09:12;;;;;;;36.13;18.92;;;;;;;9.68;44.83;101273.84;5112600;28;20387;-77
2022/03/27 02:11:40;;;;;;;39.55;17.95;;;;;;;9.53;44.32;101273.06;5114145;28;20038;-77
2022/03/27 02:14:05;;;;;;;35.90;18.23;;;;;;;9.48;44.66;101267.16;5113810;28;20015;-77
2022/03/27 02:16:30;;;;;;;36.58;18.25;;;;;;;9.41;45.17;101287.28;5113963;28;20072;-76
2022/03/27 02:18:56;;;;;;;32.28;17.83;;;;;;;9.31;44.58;101275.47;5113892;28;20058;-77
2022/03/27 02:21:21;;;;;;;35.67;17.85;;;;;;;9.34;44.87;101286.00;5112566;28;20499;-77
2022/03/27 02:23:47;;;;;;;35.33;16.85;;;;;;;9.19;45.08;101279.84;5113887;28;20078;-77
2022/03/27 02:26:13;;;;;;;39.72;17.85;;;;;;;9.25;45.19;101300.84;5112570;28;20031;-77
2022/03/27 02:28:39;;;;;;;32.25;17.35;;;;;;;9.13;45.85;101290.94;5113436;28;20410;-77
2022/03/27 02:31:05;;;;;;;30.17;17.75;;;;;;;9.13;45.57;101300.81;5112403;28;20027;-77
2022/03/27 02:33:30;;;;;;;39.28;18.05;;;;;;;9.12;45.39;101291.06;5113374;28;20028;-77
2022/03/27 02:35:56;;;;;;;34.47;17.98;;;;;;;9.21;45.55;101301.16;5113690;28;20571;-76
2022/03/27 02:38:22;;;;;;;40.17;18.42;;;;;;;9.14;45.81;101305.19;5113382;28;20098;-77
2022/03/27 02:40:48;;;;;;;34.83;18.20;;;;;;;9.11;45.86;101310.75;5113508;28;20080;-77
2022/03/27 02:43:13;;;;;;;31.25;17.73;;;;;;;9.09;46.16;101318.00;5113354;28;20034;-77
2022/03/27 02:45:40;;;;;;;36.72;19.02;;;;;;;9.03;46.36;101321.97;5113291;28;20032;-77
2022/03/27 02:48:06;;;;;;;34.13;16.58;;;;;;;8.98;46.81;101324.09;5113345;28;20410;-77
2022/03/27 02:50:32;;;;;;;34.53;17.30;;;;;;;8.93;46.90;101325.31;5113235;28;20046;-77
2022/03/27 02:53:01;;;;;;;33.88;17.48;;;;;;;8.82;46.29;101317.16;5111946;28;20028;-77
2022/03/27 02:55:26;;;;;;;38.25;18.67;;;;;;;8.86;46.66;101324.88;5110769;28;20471;-77
2022/03/27 02:57:53;;;;;;;35.65;19.67;;;;;;;8.89;47.10;101334.50;5111405;28;20060;-77
2022/03/27 03:00:19;;;;;;;39.17;18.08;;;;;;;8.77;47.00;101327.31;5113181;28;20035;-77
2022/03/27 03:02:45;;;;;;;36.00;17.73;;;;;;;8.80;47.22;101344.00;5111547;28;20036;-77
2022/03/27 03:05:11;;;;;;;36.25;19.42;;;;;;;8.70;46.59;101339.31;5111670;28;20441;-77
2022/03/27 03:07:43;;;;;;;36.28;18.65;;;;;;;8.62;47.41;101342.50;5113122;28;20061;-77
2022/03/27 03:10:09;;;;;;;34.95;18.27;;;;;;;8.63;47.18;101407.53;5113038;28;20024;-77
2022/03/27 03:12:35;;;;;;;34.17;18.35;;;;;;;8.65;47.55;101417.16;5111518;28;20093;-77
2022/03/27 03:15:00;;;;;;;34.75;18.42;;;;;;;8.66;48.14;101402.00;5112861;28;20023;-77
2022/03/27 03:17:26;;;;;;;35.53;18.52;;;;;;;8.66;48.61;101396.66;5111236;28;20019;-76
2022/03/27 03:19:52;;;;;;;31.88;17.35;;;;;;;8.54;49.05;101376.00;5111839;28;20031;-77
2022/03/27 03:22:18;;;;;;;36.72;19.65;;;;;;;8.64;49.51;101390.56;5112594;28;20045;-75
2022/03/27 03:24:44;;;;;;;38.05;19.58;;;;;;;8.60;49.61;101383.66;5112537;28;20467;-72
2022/03/27 03:27:10;;;;;;;43.03;18.60;;;;;;;8.51;50.03;101389.56;5112251;28;20049;-72
2022/03/27 03:29:35;;;;;;;45.47;19.45;;;;;;;8.59;50.03;101406.00;5112138;28;20046;-72
2022/03/27 03:32:01;;;;;;;41.13;19.55;;;;;;;8.61;50.05;101422.84;5112558;28;20411;-72
2022/03/27 03:34:26;;;;;;;31.95;16.77;;;;;;;8.47;49.97;101402.28;5112030;28;20100;-73
2022/03/27 03:36:52;;;;;;;36.35;18.17;;;;;;;8.47;50.54;101417.47;5110526;28;20039;-72
2022/03/27 03:39:17;;;;;;;40.47;19.33;;;;;;;8.38;50.07;101421.56;5112019;28;20478;-72
2022/03/27 03:41:43;;;;;;;43.10;19.25;;;;;;;8.40;50.64;101443.72;5110449;28;20068;-73
2022/03/27 03:44:09;;;;;;;36.50;19.05;;;;;;;8.21;51.07;101420.81;5111375;28;20149;-72
2022/03/27 03:46:34;;;;;;;37.90;19.90;;;;;;;8.29;50.83;101445.34;5111952;28;20065;-72
2022/03/27 03:49:00;;;;;;;35.38;18.73;;;;;;;8.22;51.17;101449.34;5111080;27;20035;-73
2022/03/27 03:51:25;;;;;;;38.63;20.13;;;;;;;8.19;51.72;101442.31;5110998;28;20027;-73
2022/03/27 03:53:51;;;;;;;34.42;19.02;;;;;;;8.30;51.80;101458.59;5111422;28;20089;-72
2022/03/27 03:56:16;;;;;;;38.67;17.27;;;;;;;8.30;52.91;101450.59;5111554;28;20038;-77
2022/03/27 03:58:41;;;;;;;31.13;16.08;;;;;;;8.32;53.17;101451.34;5111347;28;20066;-77
2022/03/27 04:01:07;;;;;;;36.10;16.73;;;;;;;8.43;53.36;101461.38;5110381;28;20047;-77
2022/03/27 04:03:32;;;;;;;36.78;17.50;;;;;;;8.40;54.34;101458.91;5111522;28;20031;-77
2022/03/27 04:05:59;;;;;;;29.20;15.98;;;;;;;8.40;54.67;101449.06;5109389;28;20028;-75
2022/03/27 04:08:24;;;;;;;31.45;16.98;;;;;;;8.55;55.11;101469.50;5111332;28;20040;-77
2022/03/27 04:10:50;;;;;;;30.95;15.65;;;;;;;8.53;54.61;101465.22;5111264;28;20125;-77
2022/03/27 04:13:15;;;;;;;35.08;16.67;;;;;;;8.55;55.04;101463.31;5111326;27;20058;-77
2022/03/27 04:15:41;;;;;;;35.20;17.30;;;;;;;8.61;54.80;101465.63;5111274;27;20023;-77
2022/03/27 04:18:07;;;;;;;37.63;17.55;;;;;;;8.64;56.02;101465.44;5110968;28;20475;-77
2022/03/27 04:20:34;;;;;;;31.92;16.77;;;;;;;8.56;56.00;101457.00;5109240;28;20036;-76
2022/03/27 04:23:01;;;;;;;26.95;15.75;;;;;;;8.66;55.23;101475.06;5112618;27;20027;-77
2022/03/27 04:25:27;;;;;;;34.08;17.10;;;;;;;8.69;55.76;101479.38;5121350;27;20088;-77
2022/03/27 04:27:52;;;;;;;46.63;16.13;;;;;;;8.64;55.66;101478.81;5115067;27;20030;-77
2022/03/27 04:30:18;;;;;;;30.02;14.70;;;;;;;8.64;56.07;101484.16;5117440;27;20055;-77
2022/03/27 04:32:43;;;;;;;26.98;14.93;;;;;;;8.78;55.77;101501.03;5113343;27;20059;-77
2022/03/27 04:35:10;;;;;;;28.00;15.18;;;;;;;8.78;55.82;101498.38;5123585;27;20028;-76
2022/03/27 04:37:49;;;;;;;26.98;13.75;;;;;;;8.79;55.51;101501.91;5114462;27;20031;-77
2022/03/27 04:40:15;;;;;;;25.60;13.85;;;;;;;8.83;56.03;101506.09;5123659;27;20038;-77
2022/03/27 04:42:42;;;;;;;24.00;13.27;;;;;;;8.80;55.95;101501.81;5119339;27;20023;-76
2022/03/27 04:45:08;;;;;;;28.05;13.82;;;;;;;8.94;56.24;101509.84;5110574;27;20057;-76
2022/03/27 04:47:34;;;;;;;24.83;13.45;;;;;;;8.96;56.29;101507.94;5111113;28;20043;-75
2022/03/27 04:50:00;;;;;;;22.40;11.70;;;;;;;9.01;56.68;101515.69;5111011;28;20036;-75
2022/03/27 04:52:25;;;;;;;22.15;12.57;;;;;;;9.02;56.57;101509.38;5110907;28;20155;-76
2022/03/27 04:54:51;;;;;;;19.02;11.52;;;;;;;9.06;56.62;101511.75;5109513;28;20070;-76
2022/03/27 04:57:16;;;;;;;25.48;11.60;;;;;;;9.10;56.79;101515.94;5110987;28;20096;-76
2022/03/27 04:59:42;;;;;;;18.80;11.65;;;;;;;9.15;56.63;101519.22;5109371;28;20020;-75
2022/03/27 05:02:07;;;;;;;24.27;11.55;;;;;;;9.30;56.94;101533.44;5111000;28;20019;-76
2022/03/27 05:04:33;;;;;;;17.25;10.30;;;;;;;9.32;57.00;101529.72;5111072;28;20414;-76
2022/03/27 05:06:58;;;;;;;19.10;10.38;;;;;;;9.36;56.76;101532.19;5109431;28;20023;-77
2022/03/27 05:09:24;;;;;;;18.58;10.63;;;;;;;9.40;56.53;101542.63;5110938;28;20035;-76
2022/03/27 05:11:49;;;;;;;16.90;10.38;;;;;;;9.47;56.83;101545.75;5109288;28;20023;-75
2022/03/27 05:14:15;;;;;;;19.50;10.88;;;;;;;9.47;56.62;101541.25;5110564;28;20494;-75
2022/03/27 05:16:41;;;;;;;19.80;11.38;;;;;;;9.50;56.52;101530.38;5109375;28;20028;-76
2022/03/27 05:19:06;;;;;;;25.35;10.75;;;;;;;9.57;56.17;101553.09;5110661;28;20102;-77
2022/03/27 05:21:33;;;;;;;17.98;10.50;;;;;;;9.63;56.15;101555.41;5111009;28;20428;-76
2022/03/27 05:23:58;;;;;;;19.38;10.43;;;;;;;9.67;56.39;101558.75;5110689;28;20081;-76
2022/03/27 05:26:25;;;;;;;15.30;10.45;;;;;;;9.74;56.13;101562.75;5110768;28;20023;-77
2022/03/27 05:28:50;;;;;;;25.98;11.40;;;;;;;9.77;56.00;101555.34;5109140;28;20040;-77
2022/03/27 05:31:16;;;;;;;22.50;10.85;;;;;;;9.79;55.60;101548.09;5108934;28;20093;-73
2022/03/27 05:33:42;;;;;;;23.02;11.15;;;;;;;9.84;55.49;101562.06;5108897;28;20042;-75
2022/03/27 05:36:09;;;;;;;19.83;11.18;;;;;;;9.86;55.73;101549.41;5109532;28;20049;-77
2022/03/27 05:38:37;;;;;;;19.50;9.93;;;;;;;9.94;55.51;101560.50;5110833;28;20038;-76
2022/03/27 05:41:03;;;;;;;18.92;10.43;;;;;;;10.01;55.41;101569.84;5110676;28;20027;-76
2022/03/27 05:43:29;;;;;;;20.73;11.20;;;;;;;10.10;55.34;101566.59;5114441;28;20020;-76
2022/03/27 05:45:54;;;;;;;16.80;10.45;;;;;;;10.16;54.90;101578.75;5114466;28;20027;-76
2022/03/27 05:48:20;;;;;;;19.33;10.25;;;;;;;10.21;54.83;101580.16;5114569;28;20051;-77
2022/03/27 05:50:46;;;;;;;20.02;10.00;;;;;;;10.26;54.45;101580.72;5113019;28;20031;-75
2022/03/27 05:53:12;;;;;;;15.77;10.05;;;;;;;10.27;54.75;101574.38;5111782;28;20544;-76
2022/03/27 05:55:37;;;;;;;18.27;10.48;;;;;;;10.34;54.46;101581.06;5112919;28;20474;-72
2022/03/27 05:58:03;;;;;;;17.40;9.57;;;;;;;10.44;54.38;101595.56;5112628;28;20020;-72
2022/03/27 06:00:28;;;;;;;18.23;9.95;;;;;;;10.49;54.20;101590.78;5113984;28;20098;-73
2022/03/27 06:02:54;;;;;;;16.58;9.25;;;;;;;10.51;54.28;101586.13;5112390;28;20031;-73
2022/03/27 06:05:23;;;;;;;22.55;9.82;;;;;;;10.54;53.83;101585.06;5113901;28;20402;-73
2022/03/27 06:07:55;;;;;;;18.20;10.05;;;;;;;10.67;53.92;101589.50;5110232;28;20038;-72
2022/03/27 06:10:26;;;;;;;17.67;9.90;;;;;;;10.74;53.73;101595.31;5113678;28;20085;-72
2022/03/27 06:12:52;;;;;;;17.10;10.25;;;;;;;10.96;52.95;101609.84;5113602;28;20020;-73
2022/03/27 06:15:19;;;;;;;18.75;10.15;;;;;;;11.14;53.15;101619.31;5112355;28;20046;-73
2022/03/27 06:17:46;;;;;;;20.20;10.95;;;;;;;11.29;52.55;101617.38;5112445;28;20032;-72
2022/03/27 06:20:17;;;;;;;19.40;9.95;;;;;;;11.29;51.96;101595.91;5111056;28;20486;-77
2022/03/27 06:22:43;;;;;;;14.68;9.05;;;;;;;11.54;51.91;101626.28;5112667;28;20030;-77
2022/03/27 06:25:10;;;;;;;17.58;10.68;;;;;;;11.68;51.57;101622.66;5112424;28;20406;-77
2022/03/27 06:27:37;;;;;;;16.60;9.90;;;;;;;11.88;51.05;101637.34;5113742;28;20051;-76
2022/03/27 06:30:05;;;;;;;14.07;9.52;;;;;;;12.03;50.78;101644.31;5110965;28;20483;-77
2022/03/27 06:32:31;;;;;;;15.32;8.93;;;;;;;12.13;50.16;101637.28;5108698;28;20036;-77
2022/03/27 06:34:58;;;;;;;15.75;9.52;;;;;;;12.35;49.98;101649.03;5111613;28;20096;-75
2022/03/27 06:37:25;;;;;;;26.70;10.18;;;;;;;12.47;49.37;101641.88;5111348;28;20031;-75
2022/03/27 06:39:50;;;;;;;17.67;9.27;;;;;;;12.68;48.61;101651.03;5110825;28;20084;-77
2022/03/27 06:42:16;;;;;;;17.58;9.55;;;;;;;12.89;47.74;101644.88;5111606;28;20023;-77
2022/03/27 06:44:42;;;;;;;11.57;8.65;;;;;;;13.08;47.17;101653.31;5111070;28;20020;-76
2022/03/27 06:47:08;;;;;;;16.10;9.27;;;;;;;13.20;47.32;101648.78;5111790;27;20069;-77
2022/03/27 06:49:34;;;;;;;13.02;8.13;;;;;;;13.31;46.81;101640.72;5113127;27;20058;-77
2022/03/27 06:52:00;;;;;;;19.13;9.77;;;;;;;13.42;46.27;101647.00;5105674;28;20063;-76
2022/03/27 06:54:26;;;;;;;14.45;9.00;;;;;;;13.71;45.02;101663.56;5110069;28;20031;-77
2022/03/27 06:56:51;;;;;;;15.27;9.80;;;;;;;13.81;45.38;101650.19;5111167;27;20126;-76
2022/03/27 06:59:17;;;;;;;13.93;9.13;;;;;;;14.04;44.78;101651.91;5109864;27;20479;-76
2022/03/27 07:04:26;;;;;;;12.85;8.88;;;;;;;14.30;44.28;101651.53;5108226;28;20035;-76
2022/03/27 07:06:51;;;;;;;15.55;8.82;;;;;;;14.56;43.86;101661.03;5106792;28;20027;-76
2022/03/27 07:09:18;;;;;;;15.25;8.63;;;;;;;14.66;43.38;101653.88;5109379;28;20039;-77
2022/03/27 07:11:44;;;;;;;17.40;9.30;;;;;;;14.89;42.90;101662.75;5108075;28;20035;-77
2022/03/27 07:14:12;;;;;;;13.88;9.15;;;;;;;15.03;42.31;101676.78;5105396;28;20333;-77
2022/03/27 07:16:39;;;;;;;12.90;9.05;;;;;;;15.09;41.96;101664.63;5107569;28;20033;-77
2022/03/27 07:19:04;;;;;;;18.38;9.13;;;;;;;15.16;41.97;101655.84;5108909;28;20084;-77
2022/03/27 07:21:30;;;;;;;16.67;9.20;;;;;;;15.28;41.84;101668.31;5109625;28;20027;-75
2022/03/27 07:23:56;;;;;;;14.65;9.10;;;;;;;15.44;41.69;101671.44;5107309;28;20523;-78
2022/03/27 07:26:22;;;;;;;13.50;9.35;;;;;;;15.56;41.30;101662.28;5109727;28;20034;-76
2022/03/27 07:28:48;;;;;;;13.60;9.32;;;;;;;15.66;41.47;101651.50;5109322;28;20817;-75
2022/03/27 07:31:13;;;;;;;13.95;8.68;;;;;;;15.87;40.84;101674.81;5108251;28;20102;-77
2022/03/27 07:33:39;;;;;;;17.02;8.90;;;;;;;16.01;40.56;101670.00;5107952;28;20043;-76
2022/03/27 07:36:05;;;;;;;16.02;9.88;;;;;;;16.21;40.06;101674.50;5107527;28;20146;-76
2022/03/27 07:38:31;;;;;;;14.15;8.63;;;;;;;16.35;39.40;101677.66;5107488;28;20051;-77
2022/03/27 07:40:57;;;;;;;12.52;9.05;;;;;;;16.47;39.18;101690.16;5108916;28;20475;-76
2022/03/27 07:43:22;;;;;;;14.10;7.97;;;;;;;16.57;38.72;101685.59;5108769;27;20070;-77
2022/03/27 07:45:47;;;;;;;15.65;8.75;;;;;;;16.65;38.79;101680.34;5106979;28;20029;-76
2022/03/27 07:48:13;;;;;;;13.23;8.57;;;;;;;16.83;38.57;101684.06;5107094;28;20031;-76
2022/03/27 07:50:38;;;;;;;10.98;8.77;;;;;;;16.96;38.45;101683.81;5107692;28;20028;-75
2022/03/27 07:53:05;;;;;;;14.65;8.90;;;;;;;17.12;38.15;101700.38;5107954;28;20039;-76
2022/03/27 07:55:31;;;;;;;13.55;9.23;;;;;;;17.26;37.81;101692.66;5108909;28;20027;-76
2022/03/27 07:57:57;;;;;;;15.73;8.70;;;;;;;17.58;37.38;101708.63;5108313;28;20495;-76
2022/03/27 08:00:23;;;;;;;15.55;8.60;;;;;;;17.91;37.01;101702.66;5106212;28;20088;-77
2022/03/27 08:02:48;;;;;;;12.40;8.38;;;;;;;18.42;36.04;101694.91;5107249;28;20023;-78
2022/03/27 08:05:14;;;;;;;11.23;8.55;;;;;;;19.05;34.58;101701.16;5107436;28;20047;-77
2022/03/27 08:07:40;;;;;;;14.23;9.32;;;;;;;19.74;33.58;101699.41;5107786;28;20032;-76
2022/03/27 08:10:06;;;;;;;15.27;8.75;;;;;;;20.55;32.32;101707.00;5106792;27;20502;-76
2022/03/27 08:12:32;;;;;;;10.13;7.80;;;;;;;21.53;30.92;101698.78;5109125;28;20023;-77
2022/03/27 08:14:58;;;;;;;8.10;7.05;;;;;;;22.55;29.48;101708.81;5102636;27;20047;-77
2022/03/27 08:17:23;;;;;;;10.65;7.47;;;;;;;23.49;28.10;101699.31;5108924;28;20043;-77
2022/03/27 08:19:49;;;;;;;11.85;8.15;;;;;;;24.23;27.12;101696.50;5106740;28;20055;-76
2022/03/27 08:22:16;;;;;;;10.35;7.00;;;;;;;24.86;26.00;101695.00;5108925;28;20031;-77
2022/03/27 08:24:42;;;;;;;15.00;7.15;;;;;;;25.38;25.54;101701.94;5109596;28;20027;-77
2022/03/27 08:27:08;;;;;;;9.73;7.18;;;;;;;25.97;24.60;101691.44;5108976;28;20035;-77
2022/03/27 08:29:38;;;;;;;9.02;7.72;;;;;;;26.37;24.23;101687.84;5108287;28;20048;-75
2022/03/27 08:32:07;;;;;;;12.75;7.30;;;;;;;26.70;24.02;101683.38;5106919;28;20499;-78
2022/03/27 08:34:34;;;;;;;11.00;7.45;;;;;;;27.06;23.53;101683.91;5109663;28;20376;-78
2022/03/27 08:37:02;;;;;;;10.80;7.50;;;;;;;27.40;23.12;101680.16;5108405;28;20039;-78
2022/03/27 08:39:28;;;;;;;13.95;7.03;;;;;;;27.84;22.42;101680.34;5108197;28;20062;-78
2022/03/27 08:41:55;;;;;;;12.68;7.60;;;;;;;28.23;22.10;101672.88;5108637;28;20104;-78
2022/03/27 08:44:23;;;;;;;8.98;7.03;;;;;;;28.53;21.65;101682.34;5107488;28;20031;-77
2022/03/27 08:46:50;;;;;;;7.95;6.45;;;;;;;28.98;21.46;101685.09;5106988;28;20061;-76
2022/03/27 08:49:15;;;;;;;13.25;6.95;;;;;;;28.95;21.54;101680.84;5109027;28;20019;-77
2022/03/27 08:51:54;;;;;;;9.07;6.07;;;;;;;29.26;21.12;101682.81;5108082;28;20495;-77
2022/03/27 08:54:23;;;;;;;18.80;7.40;;;;;;;29.66;20.73;101681.47;5107155;28;20031;-77
2022/03/27 08:57:08;;;;;;;10.27;6.82;;;;;;;29.66;20.49;101684.25;5107234;28;20036;-76
2022/03/27 08:59:35;;;;;;;8.43;6.55;;;;;;;29.79;20.26;101673.88;5107221;28;20111;-78
2022/03/27 09:02:01;;;;;;;11.60;6.93;;;;;;;30.10;20.39;101684.84;5107338;28;20532;-78
2022/03/27 09:04:27;;;;;;;11.38;6.85;;;;;;;30.17;20.21;101680.13;5109063;28;20079;-78
2022/03/27 09:07:03;;;;;;;11.38;7.03;;;;;;;30.01;20.17;101674.28;5109633;28;20067;-77
2022/03/27 09:09:32;;;;;;;11.70;8.05;;;;;;;30.21;20.36;101673.03;5108849;28;20031;-77
2022/03/27 09:11:58;;;;;;;9.93;7.93;;;;;;;30.61;19.94;101665.09;5107850;28;20027;-78
2022/03/27 09:14:24;;;;;;;15.07;7.22;;;;;;;30.70;19.79;101676.69;5110365;28;20041;-77
2022/03/27 09:17:08;;;;;;;8.98;6.72;;;;;;;30.80;19.73;101685.31;5112362;28;20020;-77
2022/03/27 09:19:36;;;;;;;7.90;6.85;;;;;;;30.78;19.91;101688.34;5111572;28;20036;-78
2022/03/27 09:22:22;;;;;;;9.35;7.07;;;;;;;31.12;18.95;101692.34;5114839;28;20550;-78
2022/03/27 09:24:57;;;;;;;10.35;6.95;;;;;;;30.73;19.42;101677.13;5112697;28;20035;-78
2022/03/27 09:27:33;;;;;;;8.25;6.80;;;;;;;31.16;19.21;101688.84;5114832;28;20037;-78
2022/03/27 09:30:10;;;;;;;11.90;6.85;;;;;;;30.58;19.55;101696.88;5113310;28;20039;-78
2022/03/27 09:32:42;;;;;;;10.10;7.38;;;;;;;29.77;20.19;101676.03;5113401;28;20114;-77
2022/03/27 09:35:10;;;;;;;7.85;6.70;;;;;;;29.27;20.72;101681.75;5113187;28;20088;-78
2022/03/27 09:37:38;;;;;;;10.57;6.82;;;;;;;29.11;20.78;101677.59;5113421;28;20038;-78
2022/03/27 09:40:06;;;;;;;9.90;7.00;;;;;;;28.54;21.54;101697.84;5114733;28;20428;-78
2022/03/27 09:42:31;;;;;;;10.32;7.15;;;;;;;28.03;21.86;101693.31;5113285;28;20032;-78
2022/03/27 09:45:12;;;;;;;11.32;7.15;;;;;;;27.58;22.29;101695.00;5113245;28;20402;-78
2022/03/27 09:47:38;;;;;;;11.55;7.32;;;;;;;27.78;22.25;101695.84;5111855;28;20036;-77
2022/03/27 09:50:04;;;;;;;9.43;7.25;;;;;;;27.54;22.29;101695.66;5113179;28;20027;-77
2022/03/27 09:52:30;;;;;;;8.95;7.47;;;;;;;27.10;22.90;101693.44;5114484;28;20035;-78
2022/03/27 09:54:55;;;;;;;13.25;7.10;;;;;;;26.53;23.42;101691.09;5113229;28;20111;-79
2022/03/27 09:57:38;;;;;;;13.70;8.23;;;;;;;25.80;24.04;101684.50;5114156;28;20019;-77
2022/03/27 10:00:20;;;;;;;12.48;8.00;;;;;;;25.02;25.17;101683.78;5112877;28;20019;-78
2022/03/27 10:02:49;;;;;;;10.27;7.40;;;;;;;24.61;25.67;101683.50;5107718;28;20391;-78
2022/03/27 10:05:16;;;;;;;11.35;7.50;;;;;;;24.36;25.91;101699.44;5113035;28;20035;-78
2022/03/27 10:07:43;;;;;;;12.13;7.38;;;;;;;23.74;26.63;101695.31;5112848;28;20030;-78
2022/03/27 10:10:14;;;;;;;11.07;7.40;;;;;;;23.28;27.27;101681.88;5114025;28;20031;-79
2022/03/27 10:12:42;;;;;;;8.82;7.93;;;;;;;22.83;27.74;101693.59;5112509;28;20039;-79
2022/03/27 10:15:13;;;;;;;10.80;8.15;;;;;;;22.33;28.30;101693.16;5113870;28;20028;-78
2022/03/27 10:17:42;;;;;;;11.02;8.00;;;;;;;21.86;28.99;101697.78;5110539;28;20035;-78
2022/03/27 10:20:12;;;;;;;14.73;8.15;;;;;;;21.39;29.81;101688.56;5110378;28;20042;-77
2022/03/27 10:22:43;;;;;;;9.98;7.88;;;;;;;21.00;30.37;101679.34;5110036;28;20548;-78
2022/03/27 10:25:11;;;;;;;11.15;9.07;;;;;;;20.76;30.89;101666.47;5111177;28;20068;-77
2022/03/27 10:27:39;;;;;;;9.85;7.82;;;;;;;20.54;31.07;101688.06;5111511;28;20027;-78
2022/03/27 10:30:07;;;;;;;12.82;8.77;;;;;;;20.41;31.03;101674.06;5113421;28;20047;-78
2022/03/27 10:32:34;;;;;;;15.63;8.93;;;;;;;20.43;30.95;101682.91;5112214;28;20032;-78
2022/03/27 10:35:33;;;;;;;10.50;8.65;;;;;;;19.89;32.03;101695.91;5112273;28;20028;-79
2022/03/27 10:38:38;;;;;;;13.25;9.18;;;;;;;19.53;32.83;101697.03;5112093;28;20078;-78
2022/03/27 10:41:13;;;;;;;14.95;9.63;;;;;;;19.36;33.14;101697.94;5091658;28;20036;-77
2022/03/27 10:44:19;;;;;;;15.77;9.20;;;;;;;19.00;33.48;101676.31;5113414;28;20114;-77
2022/03/27 10:47:10;;;;;;;13.52;8.82;;;;;;;18.84;33.90;101693.34;5102466;28;20133;-78
2022/03/27 10:49:35;;;;;;;15.45;8.48;;;;;;;18.71;33.92;101690.13;5112107;28;20027;-78
2022/03/27 10:52:05;;;;;;;10.80;8.68;;;;;;;18.59;34.70;101690.50;5113417;28;20019;-77
2022/03/27 10:54:31;;;;;;;12.57;8.30;;;;;;;18.47;34.90;101689.84;5113008;28;20047;-79
2022/03/27 10:56:58;;;;;;;13.63;8.52;;;;;;;18.42;34.75;101678.59;5113375;27;20027;-77
2022/03/27 10:59:39;;;;;;;12.48;8.98;;;;;;;18.42;34.61;101689.47;5111834;28;20039;-78
2022/03/27 11:02:05;;;;;;;13.85;8.75;;;;;;;18.22;35.13;101674.25;5110739;28;20070;-79
2022/03/27 11:04:38;;;;;;;11.18;7.53;;;;;;;18.22;35.73;101693.25;5113295;27;20043;-79
2022/03/27 11:07:16;;;;;;;12.43;8.82;;;;;;;18.18;35.49;101686.41;5111555;28;20027;-79
2022/03/27 11:09:48;;;;;;;12.20;7.80;;;;;;;18.13;35.44;101689.56;5109911;28;20122;-78
2022/03/27 11:12:22;;;;;;;10.75;8.73;;;;;;;18.10;35.95;101681.72;5110553;28;20040;-79
2022/03/27 11:14:51;;;;;;;12.10;8.60;;;;;;;18.06;35.96;101682.19;5111057;28;20027;-77
2022/03/27 11:17:37;;;;;;;12.35;7.82;;;;;;;18.02;36.02;101676.19;5110643;27;20038;-78
2022/03/27 11:20:29;;;;;;;12.13;8.25;;;;;;;18.09;36.02;101682.72;5109503;28;20023;-76
2022/03/27 11:22:57;;;;;;;14.60;8.73;;;;;;;18.11;36.17;101685.28;5095728;28;20495;-77